Sumerco, WV

7:22 AM EST on January 29, 2015 (GMT -0500)
Yeager Airport | Change Station
CLOSE
Current Station
Airport
Location: Charleston,
Elevation: 981 ft
Nearby Weather Stations

Elev 981 ft 38.38 °N, 81.59 °W | Updated 28 minutes ago

Partly Cloudy
Partly Cloudy
23 °F
Feels Like 18 °F
N
4
Wind Variable Wind from NNE

Today
High -- | Low -- °F
--% Chance of Precip.
Yesterday
High -- | Low -- °F
Precip. -- in
7:35 AM 5:46 PM
Waxing Gibbous, 74% visible
Pressure 30.09 in
Visibility 9.0 miles
Clouds Scattered Clouds 19000 ft
Windchill 18 °F
Dew Point 19 °F
Humidity 85%
Rainfall 0.00 in
Snow Depth Not available.
UV 0 out of 12
Pollen .10 out of 12
Air Quality Not available.
Flu Activity Not available.
METAR KCRW 291154Z 03003KT 9SM SCT190 M05/M07 A3006 RMK AO2 SLP190 T10501072 11033 21061 56025

More Conditions Fewer Conditions

Pressure 30.09 in
Visibility 9.0 miles
Clouds Scattered Clouds 19000 ft
Windchill 18 °F
Dew Point 19 °F
Humidity 85%
Rainfall 0.00 in
Snow Depth Not available.
UV 0 out of 12
Pollen .10 out of 12
Air Quality Not available.
Flu Activity Not available.
METAR KCRW 291154Z 03003KT 9SM SCT190 M05/M07 A3006 RMK AO2 SLP190 T10501072 11033 21061 56025

More Conditions Fewer Conditions

10-Day Weather Forecast

Almanac

Astronomy

Jan. 29, 2015 Rise Set
Actual Time
Civil Twilight
Nautical Twilight
Astronomical Twilight
Moon
Length of Visible Light
Length of Day
Tomorrow will be .
, % of the Moon is Illuminated

Today's Extremes

State Highs State Lows

Community

WunderPhotos

Upload Photos

1,791,420 photos uploaded!

WunderBlogs® & News

Nearby

Air Quality

  Air Quality AQ Index Pollutant
Not available.

Snow Depth

Station Depth Elevation

Earthquake Activity

City Distance Mag. Time & Date
Minimum magnitude displayed is 2.5.

Coastal Water Temperatures

Place Temperature

Nearby Weather Stations